createdAt,value
2018-12-20T00:04:50.858Z,35.07
2018-12-20T00:09:53.635Z,38.63
2018-12-20T00:14:56.335Z,42.67
2018-12-20T00:19:59.749Z,44.83
2018-12-20T00:25:03.125Z,41.40
2018-12-20T00:30:07.429Z,41.07
2018-12-20T00:35:10.522Z,42.33
2018-12-20T00:40:13.501Z,45.07
2018-12-20T00:45:16.177Z,40.57
2018-12-20T00:50:18.833Z,42.50
2018-12-20T00:55:22.066Z,42.13
2018-12-20T01:00:25.734Z,39.23
2018-12-20T01:05:28.400Z,39.73
2018-12-20T01:10:33.953Z,37.73
2018-12-20T01:15:36.533Z,35.23
2018-12-20T01:20:39.219Z,35.80
2018-12-20T01:25:42.144Z,35.53
2018-12-20T01:30:45.265Z,35.67
2018-12-20T01:35:48.672Z,34.67
2018-12-20T01:40:51.825Z,32.50
2018-12-20T01:45:54.473Z,35.90
2018-12-20T01:50:57.491Z,32.83
2018-12-20T01:56:00.413Z,31.83
2018-12-20T02:01:03.270Z,30.87
2018-12-20T02:06:08.281Z,27.97
2018-12-20T02:11:10.953Z,29.20
2018-12-20T02:16:13.809Z,31.10
2018-12-20T02:21:16.449Z,31.63
2018-12-20T02:26:22.168Z,34.00
2018-12-20T02:31:24.884Z,29.77
2018-12-20T02:36:27.466Z,26.80
2018-12-20T02:41:30.281Z,29.17
2018-12-20T02:46:33.809Z,30.97
2018-12-20T02:51:36.463Z,29.13
2018-12-20T02:56:39.915Z,29.40
2018-12-20T03:01:42.764Z,28.00
2018-12-20T03:06:45.628Z,30.83
2018-12-20T03:11:48.745Z,28.50
2018-12-20T03:16:55.264Z,26.70
2018-12-20T03:21:57.977Z,27.60
2018-12-20T03:27:00.799Z,26.70
2018-12-20T03:32:04.554Z,26.17
2018-12-20T03:37:08.360Z,28.30
2018-12-20T03:42:11.093Z,30.67
2018-12-20T03:47:14.182Z,24.10
2018-12-20T03:52:17.855Z,27.40
2018-12-20T03:57:20.570Z,29.20
2018-12-20T04:02:27.532Z,29.00
2018-12-20T04:07:30.750Z,25.00
2018-12-20T04:12:34.220Z,22.47
2018-12-20T04:17:37.450Z,21.50
2018-12-20T04:22:40.211Z,20.13
2018-12-20T04:27:43.134Z,19.73
2018-12-20T04:32:46.063Z,20.53
2018-12-20T04:37:48.715Z,20.07
2018-12-20T04:42:51.288Z,19.30
2018-12-20T04:47:54.418Z,21.10
2018-12-20T04:52:57.606Z,20.93
2018-12-20T04:58:00.310Z,18.57
2018-12-20T05:03:03.603Z,17.47
2018-12-20T05:08:06.475Z,18.37
2018-12-20T05:13:10.585Z,17.40
2018-12-20T05:18:13.733Z,17.77
2018-12-20T05:23:17.427Z,18.60
2018-12-20T05:28:20.687Z,17.80
2018-12-20T05:33:23.526Z,16.50
2018-12-20T05:38:26.302Z,16.50
2018-12-20T05:43:29.202Z,16.47
2018-12-20T05:48:32.054Z,16.50
2018-12-20T05:53:34.923Z,16.70
2018-12-20T05:58:37.812Z,15.10
2018-12-20T06:03:40.927Z,15.70
2018-12-20T06:08:44.246Z,15.40
2018-12-20T06:13:47.585Z,17.47
2018-12-20T06:18:53.575Z,16.67
2018-12-20T06:23:56.274Z,15.20
2018-12-20T06:29:00.757Z,15.90
2018-12-20T06:34:03.407Z,14.47
2018-12-20T06:39:07.638Z,18.03
2018-12-20T06:44:10.553Z,12.57
2018-12-20T06:49:13.138Z,13.10
2018-12-20T06:54:15.858Z,16.37
2018-12-20T06:59:18.682Z,15.67
2018-12-20T07:04:21.267Z,13.50
2018-12-20T07:09:24.117Z,14.67
2018-12-20T07:14:28.461Z,14.90
2018-12-20T07:19:31.014Z,14.33
2018-12-20T07:24:33.570Z,12.90
2018-12-20T07:29:36.523Z,13.70
2018-12-20T07:34:39.079Z,13.87
2018-12-20T07:39:43.108Z,12.93
2018-12-20T07:44:45.691Z,15.03
2018-12-20T07:49:48.530Z,12.43
2018-12-20T07:54:51.098Z,13.80
2018-12-20T07:59:53.666Z,13.10
2018-12-20T08:04:56.423Z,11.40
2018-12-20T08:09:59.098Z,11.10
2018-12-20T08:15:02.234Z,11.07
2018-12-20T08:20:06.238Z,13.90
2018-12-20T08:25:09.077Z,12.73
2018-12-20T08:30:12.203Z,10.80
2018-12-20T08:35:14.774Z,11.17
2018-12-20T08:40:17.334Z,13.40
2018-12-20T08:45:19.900Z,12.00
2018-12-20T08:50:22.820Z,11.60
2018-12-20T08:55:25.537Z,11.23
2018-12-20T09:00:28.298Z,10.13
2018-12-20T09:05:31.478Z,8.97
2018-12-20T09:10:34.664Z,10.23
2018-12-20T09:15:37.506Z,11.43
2018-12-20T09:20:40.074Z,11.00
2018-12-20T09:25:42.680Z,9.47
2018-12-20T09:30:45.302Z,9.73
2018-12-20T09:35:47.898Z,9.10
2018-12-20T09:40:50.477Z,9.50
2018-12-20T09:45:53.776Z,9.67
2018-12-20T09:50:56.983Z,7.90
2018-12-20T09:56:00.134Z,14.00
2018-12-20T10:01:02.711Z,7.83
2018-12-20T10:06:07.935Z,9.60
2018-12-20T10:11:10.989Z,9.40
2018-12-20T10:16:16.194Z,6.67
2018-12-20T10:21:19.411Z,7.47
2018-12-20T10:26:22.426Z,6.20
2018-12-20T10:31:25.020Z,7.10
2018-12-20T10:36:27.629Z,10.27
2018-12-20T10:41:32.862Z,6.97
2018-12-20T10:46:36.448Z,7.20
2018-12-20T10:51:39.100Z,5.57
2018-12-20T10:56:46.043Z,6.07
2018-12-20T11:01:50.814Z,7.77
2018-12-20T11:12:37.215Z,7.23
2018-12-20T11:17:42.439Z,10.63
2018-12-20T11:22:45.756Z,8.40
2018-12-20T11:27:48.993Z,7.63
2018-12-20T11:32:54.250Z,5.97
2018-12-20T11:37:56.814Z,7.83
2018-12-20T11:42:59.392Z,4.70
2018-12-20T11:48:01.993Z,7.20
2018-12-20T11:53:06.526Z,7.77
2018-12-20T11:58:09.484Z,7.70
2018-12-20T12:03:13.665Z,6.80
2018-12-20T12:08:16.293Z,6.43
2018-12-20T12:13:19.806Z,10.30
2018-12-20T12:18:28.101Z,12.37
2018-12-20T12:23:30.703Z,8.73
2018-12-20T12:28:36.413Z,7.87
2018-12-20T12:33:39.020Z,8.23
2018-12-20T12:38:41.652Z,8.67
2018-12-20T12:43:44.360Z,7.33
2018-12-20T12:48:46.948Z,4.40
2018-12-20T12:53:49.974Z,7.13
2018-12-20T12:58:52.573Z,6.40
2018-12-20T13:03:57.350Z,5.30
2018-12-20T13:09:02.294Z,8.83
2018-12-20T13:14:04.876Z,7.97
2018-12-20T13:19:09.391Z,3.90
2018-12-20T13:24:12.000Z,5.63
2018-12-20T13:29:16.272Z,6.63
2018-12-20T13:34:19.860Z,7.80
2018-12-20T13:39:22.829Z,5.07
2018-12-20T13:44:25.439Z,8.00
2018-12-20T13:49:28.518Z,9.57
2018-12-20T13:54:33.725Z,6.07
2018-12-20T13:59:36.303Z,5.43
2018-12-20T14:04:40.027Z,5.80
2018-12-20T14:09:42.636Z,5.57
2018-12-20T14:14:47.826Z,6.40
2018-12-20T14:19:50.649Z,6.60
2018-12-20T14:24:53.404Z,5.33
2018-12-20T14:29:56.235Z,6.90
2018-12-20T14:34:58.923Z,10.13
2018-12-20T14:40:03.012Z,7.43
2018-12-20T14:45:06.172Z,7.40
2018-12-20T14:50:13.102Z,6.27
2018-12-20T14:55:15.677Z,6.10
2018-12-20T15:00:19.459Z,5.67
2018-12-20T15:05:22.760Z,9.03
2018-12-20T15:10:26.759Z,6.70
2018-12-20T15:15:29.383Z,5.90
2018-12-20T15:20:40.241Z,9.13
2018-12-20T15:25:36.804Z,6.80
2018-12-20T15:30:39.533Z,9.07
2018-12-20T15:35:43.209Z,8.13
2018-12-20T15:40:45.800Z,5.13
2018-12-20T15:45:48.458Z,12.10
2018-12-20T15:50:51.059Z,9.60
2018-12-20T15:55:54.076Z,9.07
2018-12-20T16:00:56.655Z,7.13
2018-12-20T16:05:59.906Z,7.00
2018-12-20T16:11:02.780Z,8.13
2018-12-20T16:16:05.641Z,10.93
2018-12-20T16:21:08.220Z,7.73
2018-12-20T16:26:11.165Z,10.27
2018-12-20T16:31:14.477Z,15.43
2018-12-20T16:36:19.646Z,12.20
2018-12-20T16:41:22.681Z,10.80
2018-12-20T16:46:26.410Z,8.00
2018-12-20T16:51:29.577Z,9.30
2018-12-20T16:56:32.150Z,7.47
2018-12-20T17:01:34.719Z,8.80
2018-12-20T17:06:43.120Z,6.37
2018-12-20T17:11:45.880Z,10.70
2018-12-20T17:16:48.561Z,5.17
2018-12-20T17:21:51.185Z,8.63
2018-12-20T17:26:53.853Z,6.30
2018-12-20T17:31:56.542Z,6.17
2018-12-20T17:36:59.182Z,7.03
2018-12-20T17:42:01.766Z,10.73
2018-12-20T17:47:04.372Z,4.37
2018-12-20T17:52:07.028Z,5.10
2018-12-20T17:57:09.614Z,4.67
2018-12-20T18:02:12.218Z,6.30
2018-12-20T18:07:16.112Z,6.93
2018-12-20T18:12:18.989Z,5.93
2018-12-20T18:17:21.623Z,7.83
2018-12-20T18:22:24.794Z,5.77
2018-12-20T18:27:28.729Z,10.87
2018-12-20T18:32:31.357Z,8.37
2018-12-20T18:37:34.006Z,7.47
2018-12-20T18:42:36.638Z,14.30
2018-12-20T18:47:39.579Z,9.23
2018-12-20T18:52:42.272Z,8.70
2018-12-20T18:57:44.931Z,8.90
2018-12-20T19:02:48.147Z,8.17
2018-12-20T19:07:51.023Z,7.63
2018-12-20T19:12:53.717Z,7.40
2018-12-20T19:17:56.800Z,6.83
2018-12-20T19:22:59.486Z,7.50
2018-12-20T19:28:02.054Z,7.00
2018-12-20T19:33:06.637Z,7.97
2018-12-20T19:38:09.210Z,8.43
2018-12-20T19:43:11.790Z,4.73
2018-12-20T19:48:14.599Z,9.77
2018-12-20T19:53:17.287Z,8.00
2018-12-20T19:58:20.011Z,6.50
2018-12-20T20:03:22.766Z,6.43
2018-12-20T20:08:25.638Z,7.73
2018-12-20T20:13:30.814Z,6.80
2018-12-20T20:18:34.778Z,6.70
2018-12-20T20:23:37.476Z,6.43
2018-12-20T20:28:40.548Z,4.00
2018-12-20T20:33:43.862Z,5.80
2018-12-20T20:38:46.515Z,10.97
2018-12-20T20:43:51.460Z,6.37
2018-12-20T20:48:54.074Z,4.63
2018-12-20T20:53:56.657Z,5.77
2018-12-20T20:58:59.229Z,4.57
2018-12-20T21:04:03.717Z,6.30
2018-12-20T21:09:07.461Z,5.70
2018-12-20T21:14:10.097Z,7.30
2018-12-20T21:19:13.392Z,7.00
2018-12-20T21:24:16.065Z,4.97
2018-12-20T21:29:19.117Z,6.20
2018-12-20T21:34:21.737Z,3.83
2018-12-20T21:39:24.308Z,3.43
2018-12-20T21:44:27.231Z,6.13
2018-12-20T21:49:29.920Z,7.40
2018-12-20T21:54:35.121Z,6.67
2018-12-20T21:59:37.696Z,3.67
2018-12-20T22:04:40.568Z,6.50
2018-12-20T22:09:43.499Z,5.53
2018-12-20T22:14:46.108Z,5.67
2018-12-20T22:19:48.724Z,5.33
2018-12-20T22:24:51.476Z,4.00
2018-12-20T22:29:54.061Z,4.93
2018-12-20T22:34:57.558Z,7.03
2018-12-20T22:40:00.370Z,3.57
2018-12-20T22:45:03.279Z,5.73
2018-12-20T22:50:07.771Z,9.93
2018-12-20T22:55:10.344Z,6.33
2018-12-20T23:00:14.382Z,5.13
2018-12-20T23:05:16.959Z,4.63
2018-12-20T23:10:20.189Z,6.17
2018-12-20T23:15:25.274Z,5.33
2018-12-20T23:20:27.863Z,5.30
2018-12-20T23:25:30.443Z,4.97
2018-12-20T23:30:33.025Z,5.07
2018-12-20T23:35:35.593Z,4.93
2018-12-20T23:40:38.165Z,6.30
2018-12-20T23:45:42.720Z,5.27
2018-12-20T23:50:45.541Z,5.77
2018-12-20T23:55:48.736Z,4.27
